Aviation Digital Data Service (ADDS)

Output produced by METARs form (1826 UTC 16 August 2018)
found at http://www.aviationweather.gov/adds/metars/
 
TAF MSLP 161525Z 1618/1718 23010KT 9999 SCT027 FEW037CB TX32/1619Z TN23/1709Z 
     TEMPO 1621/1624 7000 TSRA 
     FM170000 33004KT 9999 SCT027 SCT037CB 
     TEMPO 1701/1705 05015G30KT 3000 +TSRA BKN023 SCT037CB BKN050 
     FM170500 03006KT 9999 FEW023 SCT070
       
TAF MSSS 161525Z 1618/1718 18008KT 9999 SCT027 FEW037CB TX31/1619Z TN21/1711Z 
     TEMPO 1621/1624 5000 TSRA BKN027 SCT037CB 
     FM170100 35006KT 9999 FEW023 FEW037CB 
     TEMPO 1703/1706 36015KT 4000 +TSRA BKN023 SCT033CB 
     FM170600 36005KT 9999 NSW